Time;durP1;ratioP1;P1;durP2;ratioP2;P2;SDS_P1;SDS_P2;PMS_P1;PMS_P2;Temp;Humidity;BMP_temperature;BMP_pressure;BME280_temperature;BME280_humidity;BME280_pressure;Samples;Min_cycle;Max_cycle;Signal;HPM_P1;HPM_P2
2021/12/22 00:02:50;;;;;;;45.27;25.47;;;;;-3.80;102007.00;;;;10439590;28;20221;-78
2021/12/22 00:07:53;;;;;;;42.97;26.57;;;;;-3.90;102000.00;;;;10411907;28;20195;-78
2021/12/22 00:12:54;;;;;;;43.70;25.60;;;;;-3.90;101999.00;;;;10421698;28;20209;-78
2021/12/22 00:17:56;;;;;;;44.17;26.30;;;;;-4.00;101998.00;;;;10405357;28;20268;-78
2021/12/22 00:22:59;;;;;;;48.87;26.80;;;;;-4.00;101981.00;;;;10422422;28;20221;-78
2021/12/22 00:28:03;;;;;;;47.17;26.03;;;;;-4.00;101982.00;;;;10422012;28;20244;-77
2021/12/22 00:33:07;;;;;;;45.73;27.40;;;;;-3.90;101998.00;;;;10438727;28;20210;-78
2021/12/22 00:38:11;;;;;;;41.53;26.90;;;;;-3.80;101986.00;;;;10430416;28;20262;-78
2021/12/22 00:43:14;;;;;;;49.03;28.43;;;;;-3.80;101972.00;;;;10463393;28;20254;-78
2021/12/22 00:48:17;;;;;;;46.23;28.00;;;;;-3.80;101982.00;;;;10447333;28;20209;-78
2021/12/22 00:53:19;;;;;;;54.63;24.90;;;;;-3.90;101975.00;;;;10463549;28;20665;-78
2021/12/22 00:58:21;;;;;;;46.87;25.53;;;;;-4.00;101975.00;;;;10463535;28;20233;-78
2021/12/22 01:03:23;;;;;;;49.13;27.13;;;;;-4.00;101963.00;;;;10446649;28;20190;-78
2021/12/22 01:08:25;;;;;;;43.70;26.43;;;;;-4.00;101964.00;;;;10452531;28;20201;-78
2021/12/22 01:13:28;;;;;;;41.00;25.37;;;;;-4.00;101963.00;;;;10437954;28;20217;-78
2021/12/22 01:18:33;;;;;;;46.57;26.07;;;;;-4.10;101960.00;;;;10437935;28;20230;-78
2021/12/22 01:23:47;;;;;;;40.83;23.50;;;;;-4.10;101979.00;;;;10437955;28;20236;-78
2021/12/22 01:28:49;;;;;;;48.80;26.07;;;;;-4.20;101969.00;;;;10462579;28;20190;-78
2021/12/22 01:33:52;;;;;;;47.47;25.50;;;;;-4.30;101974.00;;;;10462280;28;20222;-78
2021/12/22 01:38:54;;;;;;;43.67;24.73;;;;;-4.30;101988.00;;;;10444616;28;20233;-78
2021/12/22 01:43:57;;;;;;;46.90;27.57;;;;;-4.40;101974.00;;;;10428997;28;20205;-78
2021/12/22 01:49:13;;;;;;;52.27;26.33;;;;;-4.40;101986.00;;;;10428524;28;20194;-78
2021/12/22 01:54:27;;;;;;;40.17;22.97;;;;;-4.40;101987.00;;;;10429088;28;20561;-78
2021/12/22 01:59:29;;;;;;;43.63;23.00;;;;;-4.40;101998.00;;;;10428969;28;20691;-78
2021/12/22 02:04:37;;;;;;;38.07;22.40;;;;;-4.30;101980.00;;;;10461698;28;20662;-78
2021/12/22 02:10:01;;;;;;;38.20;20.67;;;;;-4.30;101975.00;;;;10448744;28;20569;-78
2021/12/22 02:15:05;;;;;;;42.10;22.70;;;;;-4.30;101973.00;;;;10469189;28;20259;-78
2021/12/22 02:20:08;;;;;;;44.57;24.40;;;;;-4.30;101984.00;;;;10453168;28;20235;-78
2021/12/22 02:25:18;;;;;;;39.00;24.57;;;;;-4.30;101979.00;;;;10468257;28;20221;-78
2021/12/22 02:30:28;;;;;;;40.50;24.40;;;;;-4.40;101975.00;;;;10465859;28;20641;-78
2021/12/22 02:40:47;;;;;;;35.07;21.97;;;;;-4.50;101976.00;;;;10433375;28;20198;-78
2021/12/22 02:45:52;;;;;;;41.63;23.83;;;;;-4.60;101968.00;;;;10402172;28;20634;-77
2021/12/22 02:50:56;;;;;;;35.00;20.97;;;;;-4.70;101975.00;;;;10401875;28;20202;-78
2021/12/22 03:06:38;;;;;;;39.07;22.60;;;;;-4.80;101974.00;;;;10442829;28;20286;-78
2021/12/22 03:11:40;;;;;;;32.90;20.50;;;;;-4.80;101985.00;;;;10442128;28;20206;-77
2021/12/22 03:16:42;;;;;;;32.47;20.80;;;;;-4.80;101985.00;;;;10458140;28;20253;-78
2021/12/22 03:21:46;;;;;;;35.77;20.83;;;;;-4.90;101987.00;;;;10425969;28;20190;-78
2021/12/22 03:26:48;;;;;;;38.70;19.77;;;;;-4.80;101993.00;;;;10458266;28;20194;-78
2021/12/22 03:31:50;;;;;;;38.53;20.57;;;;;-4.90;102001.00;;;;10458141;28;20198;-78
2021/12/22 03:36:52;;;;;;;36.80;22.10;;;;;-4.80;102000.00;;;;10424240;28;20240;-78
2021/12/22 03:41:54;;;;;;;36.03;22.37;;;;;-4.80;101992.00;;;;10440323;28;20217;-78
2021/12/22 03:46:59;;;;;;;36.33;21.30;;;;;-4.80;101988.00;;;;10440616;28;20274;-78
2021/12/22 03:52:03;;;;;;;32.87;21.90;;;;;-4.80;101990.00;;;;10424541;28;20645;-78
2021/12/22 03:57:05;;;;;;;34.23;21.77;;;;;-4.70;101980.00;;;;10408466;28;20213;-78
2021/12/22 04:02:09;;;;;;;41.53;22.23;;;;;-4.70;101985.00;;;;10456906;28;20285;-77
2021/12/22 04:07:11;;;;;;;37.40;23.20;;;;;-4.60;101986.00;;;;10440575;28;20193;-78
2021/12/22 04:12:13;;;;;;;45.23;23.43;;;;;-4.60;101975.00;;;;10448964;28;20189;-77
2021/12/22 04:17:15;;;;;;;40.93;23.40;;;;;-4.50;101983.00;;;;10465059;28;20209;-77
2021/12/22 04:22:17;;;;;;;38.90;22.00;;;;;-4.50;101984.00;;;;10464572;28;20197;-77
2021/12/22 04:27:19;;;;;;;37.73;22.87;;;;;-4.50;101980.00;;;;10465450;28;20239;-78
2021/12/22 04:32:22;;;;;;;42.47;23.40;;;;;-4.30;101982.00;;;;10455824;28;20201;-78
2021/12/22 04:37:24;;;;;;;41.27;22.93;;;;;-4.20;101985.00;;;;10439788;28;20935;-78
2021/12/22 04:42:26;;;;;;;37.33;23.07;;;;;-4.20;101969.00;;;;10439545;28;20692;-77
2021/12/22 04:47:28;;;;;;;36.20;22.53;;;;;-4.30;101956.00;;;;10422914;28;20187;-78
2021/12/22 04:52:40;;;;;;;39.93;23.40;;;;;-4.30;101961.00;;;;10423671;28;20252;-77
2021/12/22 04:57:42;;;;;;;35.43;22.60;;;;;-4.40;101967.00;;;;10423050;28;20260;-78
2021/12/22 05:02:45;;;;;;;46.73;23.17;;;;;-4.50;101950.00;;;;10462780;28;20195;-77
2021/12/22 05:07:47;;;;;;;36.90;21.20;;;;;-4.50;101952.00;;;;10431020;28;20576;-77
2021/12/22 05:12:50;;;;;;;38.73;21.63;;;;;-4.40;101953.00;;;;10430822;28;20194;-78
2021/12/22 05:22:57;;;;;;;32.80;21.17;;;;;-4.40;101952.00;;;;10430438;28;20197;-77
2021/12/22 05:27:59;;;;;;;35.93;20.13;;;;;-4.50;101947.00;;;;10430223;28;20236;-77
2021/12/22 05:33:01;;;;;;;32.77;19.97;;;;;-4.60;101943.00;;;;10429661;28;20268;-77
2021/12/22 05:38:03;;;;;;;42.03;22.53;;;;;-4.70;101943.00;;;;10429550;28;20624;-77
2021/12/22 05:43:05;;;;;;;32.43;20.93;;;;;-4.70;101944.00;;;;10429237;28;20260;-77
2021/12/22 05:48:06;;;;;;;35.80;22.30;;;;;-4.70;101926.00;;;;10428445;28;20641;-78
2021/12/22 05:53:08;;;;;;;30.70;19.00;;;;;-4.70;101933.00;;;;10462476;28;20186;-78
2021/12/22 05:58:10;;;;;;;33.20;19.70;;;;;-4.80;101939.00;;;;10462240;28;20210;-78
2021/12/22 06:03:12;;;;;;;37.83;20.30;;;;;-4.80;101936.00;;;;10429107;28;20240;-78
2021/12/22 06:08:15;;;;;;;38.73;19.73;;;;;-4.80;101943.00;;;;10428796;28;20198;-77
2021/12/22 06:13:16;;;;;;;27.80;17.90;;;;;-4.80;101952.00;;;;10413282;28;20297;-78
2021/12/22 06:18:18;;;;;;;33.07;19.10;;;;;-4.80;101960.00;;;;10461667;28;20252;-78
2021/12/22 06:23:20;;;;;;;36.73;18.60;;;;;-4.90;101950.00;;;;10462031;28;20637;-78
2021/12/22 06:28:22;;;;;;;33.13;18.73;;;;;-4.90;101952.00;;;;10445199;28;20557;-78
2021/12/22 06:33:24;;;;;;;30.87;18.67;;;;;-5.00;101951.00;;;;10445300;28;20720;-78
2021/12/22 06:38:27;;;;;;;37.90;19.30;;;;;-5.10;101948.00;;;;10462078;28;20210;-78
2021/12/22 06:43:28;;;;;;;37.50;21.07;;;;;-5.20;101955.00;;;;10444426;28;20190;-78
2021/12/22 06:48:30;;;;;;;32.43;18.53;;;;;-5.20;101946.00;;;;10427128;28;20224;-78
2021/12/22 06:53:34;;;;;;;32.43;20.47;;;;;-5.30;101948.00;;;;10426718;28;20604;-78
2021/12/22 06:58:36;;;;;;;29.37;18.40;;;;;-5.30;101954.00;;;;10445804;28;20263;-78
2021/12/22 07:03:38;;;;;;;29.23;19.20;;;;;-5.30;101959.00;;;;10459753;28;20304;-77
2021/12/22 07:08:40;;;;;;;28.53;17.33;;;;;-5.40;101955.00;;;;10454574;28;20220;-78
2021/12/22 07:13:42;;;;;;;34.47;18.90;;;;;-5.40;101949.00;;;;10468160;28;20192;-78
2021/12/22 07:18:44;;;;;;;31.60;17.57;;;;;-5.40;101940.00;;;;10411526;28;20214;-78
2021/12/22 07:23:46;;;;;;;31.07;18.50;;;;;-5.40;101947.00;;;;10417409;28;20241;-78
2021/12/22 07:28:48;;;;;;;31.47;18.10;;;;;-5.40;101941.00;;;;10434945;28;20642;-78
2021/12/22 07:34:07;;;;;;;30.07;19.27;;;;;-5.30;101943.00;;;;10441941;28;20815;-77
2021/12/22 07:39:09;;;;;;;29.20;17.93;;;;;-5.30;101937.00;;;;10442314;28;20758;-78
2021/12/22 07:44:11;;;;;;;30.30;18.20;;;;;-5.30;101936.00;;;;10446204;28;20205;-78
2021/12/22 07:49:13;;;;;;;35.50;18.37;;;;;-5.20;101942.00;;;;10476972;28;20186;-78
2021/12/22 07:54:15;;;;;;;32.93;19.10;;;;;-5.20;101925.00;;;;10389997;28;20190;-78
2021/12/22 07:59:17;;;;;;;33.40;19.27;;;;;-5.10;101924.00;;;;10433865;28;20205;-77
2021/12/22 08:04:18;;;;;;;31.83;19.53;;;;;-5.00;101935.00;;;;10432895;28;20198;-78
2021/12/22 08:09:25;;;;;;;35.40;20.73;;;;;-4.80;101937.00;;;;10406521;28;20206;-78
2021/12/22 08:14:27;;;;;;;31.73;19.33;;;;;-4.70;101943.00;;;;10418530;28;20252;-78
2021/12/22 08:19:29;;;;;;;29.13;19.03;;;;;-4.50;101947.00;;;;10429514;28;20887;-79
2021/12/22 08:24:32;;;;;;;27.97;17.47;;;;;-4.40;101933.00;;;;10446812;28;20197;-77
2021/12/22 08:29:41;;;;;;;33.10;19.47;;;;;-4.20;101946.00;;;;10406678;28;20186;-78
2021/12/22 08:34:47;;;;;;;29.73;18.20;;;;;-4.00;101958.00;;;;10424793;28;20233;-77
2021/12/22 08:39:50;;;;;;;34.40;19.43;;;;;-3.80;101954.00;;;;10448902;28;20210;-78
2021/12/22 08:44:53;;;;;;;32.53;19.20;;;;;-3.70;101950.00;;;;10411398;28;20209;-78
2021/12/22 08:49:55;;;;;;;31.50;19.90;;;;;-3.60;101953.00;;;;10427199;28;20191;-78
2021/12/22 08:54:57;;;;;;;35.50;21.03;;;;;-3.30;101952.00;;;;10433419;28;20197;-78
2021/12/22 08:59:59;;;;;;;40.27;24.50;;;;;-3.10;101954.00;;;;10414196;28;20248;-78
2021/12/22 09:05:01;;;;;;;39.43;23.23;;;;;-2.90;101940.00;;;;10447678;28;20276;-78
2021/12/22 09:10:04;;;;;;;35.60;22.13;;;;;-2.70;101935.00;;;;10457197;28;20191;-78
2021/12/22 09:15:06;;;;;;;39.37;23.03;;;;;-2.50;101940.00;;;;10430958;28;20194;-79
2021/12/22 09:20:08;;;;;;;34.30;20.97;;;;;-2.30;101936.00;;;;10430644;28;20272;-79
2021/12/22 09:25:11;;;;;;;38.00;23.03;;;;;-2.00;101936.00;;;;10447559;28;20198;-79
2021/12/22 09:30:13;;;;;;;32.30;20.73;;;;;-1.60;101918.00;;;;10430124;28;20193;-79
2021/12/22 09:35:15;;;;;;;34.77;21.47;;;;;-1.10;101912.00;;;;10446352;28;20285;-79
2021/12/22 09:40:18;;;;;;;34.53;19.20;;;;;-0.70;101919.00;;;;10391566;28;20722;-80
2021/12/22 09:45:24;;;;;;;28.87;16.13;;;;;-0.10;101917.00;;;;10428181;28;20719;-79
2021/12/22 09:50:47;;;;;;;30.77;19.90;;;;;0.30;101917.00;;;;10439996;28;20389;-79
2021/12/22 09:55:49;;;;;;;37.00;22.93;;;;;0.70;101912.00;;;;10428879;28;20178;-80
2021/12/22 10:00:52;;;;;;;33.03;20.40;;;;;0.60;101910.00;;;;10445707;28;20198;-80
2021/12/22 10:05:54;;;;;;;35.57;21.30;;;;;0.70;101905.00;;;;10444533;28;20878;-80
2021/12/22 10:11:09;;;;;;;33.50;19.00;;;;;0.50;101911.00;;;;10427587;28;20198;-80
2021/12/22 10:16:25;;;;;;;27.67;19.40;;;;;0.80;101895.00;;;;10440193;28;20206;-79
2021/12/22 10:21:27;;;;;;;32.20;19.73;;;;;1.30;101888.00;;;;10427628;28;20644;-79
2021/12/22 10:26:29;;;;;;;28.17;18.07;;;;;1.20;101884.00;;;;10444003;28;20195;-79
2021/12/22 10:31:37;;;;;;;26.97;15.93;;;;;1.50;101886.00;;;;10424596;28;20289;-79
2021/12/22 10:36:51;;;;;;;26.17;16.53;;;;;1.70;101873.00;;;;10426152;28;20705;-79
2021/12/22 10:42:00;;;;;;;19.53;13.37;;;;;2.20;101883.00;;;;10427001;28;20210;-79
2021/12/22 10:47:33;;;;;;;21.53;13.80;;;;;2.50;101874.00;;;;10426425;28;20194;-79
2021/12/22 10:52:35;;;;;;;19.37;11.83;;;;;2.50;101875.00;;;;10408726;28;20205;-79
2021/12/22 10:57:39;;;;;;;23.77;13.37;;;;;2.40;101873.00;;;;10448840;28;20214;-79
2021/12/22 11:02:49;;;;;;;17.10;10.63;;;;;2.40;101874.00;;;;10425227;28;20206;-79
2021/12/22 11:07:51;;;;;;;20.03;12.13;;;;;2.30;101864.00;;;;10424915;28;20213;-79
2021/12/22 11:13:06;;;;;;;18.07;11.40;;;;;2.30;101853.00;;;;10444657;28;20194;-79
2021/12/22 11:18:29;;;;;;;19.30;12.33;;;;;2.20;101856.00;;;;10449800;28;20210;-79
2021/12/22 11:23:31;;;;;;;14.60;11.20;;;;;2.40;101832.00;;;;10452869;28;20212;-79
2021/12/22 11:28:36;;;;;;;17.43;12.97;;;;;2.70;101824.00;;;;10426980;28;20194;-79
2021/12/22 11:33:41;;;;;;;16.30;10.57;;;;;2.50;101819.00;;;;10423708;28;20293;-79
2021/12/22 11:38:43;;;;;;;20.07;11.00;;;;;2.50;101810.00;;;;10469764;28;20664;-78
2021/12/22 11:43:48;;;;;;;15.50;9.83;;;;;2.50;101806.00;;;;10465912;28;20284;-78
2021/12/22 11:48:50;;;;;;;15.97;9.43;;;;;2.90;101789.00;;;;10401940;28;20206;-78
2021/12/22 11:53:58;;;;;;;18.77;9.77;;;;;3.10;101785.00;;;;10422342;28;20198;-78
2021/12/22 11:59:03;;;;;;;17.97;9.80;;;;;2.90;101775.00;;;;10416404;28;20257;-78
2021/12/22 12:04:14;;;;;;;15.10;9.67;;;;;3.10;101779.00;;;;10457337;28;20618;-78
2021/12/22 12:09:22;;;;;;;13.80;9.37;;;;;3.30;101766.00;;;;10450652;28;20808;-79
2021/12/22 12:25:11;;;;;;;12.07;8.70;;;;;3.60;101742.00;;;;10440025;28;20190;-78
2021/12/22 12:30:42;;;;;;;14.07;8.83;;;;;3.50;101739.00;;;;10458040;28;20183;-78
2021/12/22 12:36:08;;;;;;;13.30;7.97;;;;;3.20;101732.00;;;;10423925;28;20221;-78
2021/12/22 12:41:13;;;;;;;13.43;8.67;;;;;3.00;101722.00;;;;10456919;28;20198;-77
2021/12/22 12:46:25;;;;;;;14.07;9.73;;;;;2.90;101711.00;;;;10440777;28;20202;-78
2021/12/22 12:51:33;;;;;;;16.53;9.43;;;;;3.00;101701.00;;;;10457796;28;20190;-78
2021/12/22 12:56:38;;;;;;;14.03;8.97;;;;;2.80;101691.00;;;;10408072;28;20222;-78
2021/12/22 13:02:01;;;;;;;13.30;9.23;;;;;2.80;101686.00;;;;10451581;28;20201;-78
2021/12/22 13:07:06;;;;;;;15.60;8.93;;;;;2.90;101684.00;;;;10440400;28;20191;-78
2021/12/22 13:12:16;;;;;;;17.00;9.20;;;;;3.00;101667.00;;;;10423958;28;20199;-78
2021/12/22 13:17:19;;;;;;;13.37;8.83;;;;;3.10;101661.00;;;;10423071;28;20210;-78
2021/12/22 13:22:30;;;;;;;17.80;10.00;;;;;3.30;101653.00;;;;10402612;28;20195;-78
2021/12/22 13:27:32;;;;;;;15.03;9.70;;;;;3.30;101647.00;;;;10430392;28;20614;-78
2021/12/22 13:32:35;;;;;;;12.57;9.50;;;;;3.30;101639.00;;;;10446224;28;20194;-78
2021/12/22 13:37:49;;;;;;;16.33;8.80;;;;;3.30;101620.00;;;;10445596;28;20206;-78
2021/12/22 13:42:51;;;;;;;14.43;8.00;;;;;3.10;101606.00;;;;10462166;28;20206;-78
2021/12/22 13:47:53;;;;;;;13.77;9.13;;;;;3.00;101615.00;;;;10461220;28;20191;-78
2021/12/22 13:52:55;;;;;;;11.50;7.57;;;;;3.00;101613.00;;;;10444766;28;20244;-79
2021/12/22 13:57:57;;;;;;;15.27;8.00;;;;;3.00;101615.00;;;;10468830;28;20232;-78
2021/12/22 14:03:14;;;;;;;11.77;8.10;;;;;2.90;101622.00;;;;10474308;28;20198;-78
2021/12/22 14:08:24;;;;;;;13.70;8.87;;;;;2.70;101597.00;;;;10467573;28;20231;-78
2021/12/22 14:13:30;;;;;;;14.80;9.57;;;;;2.60;101594.00;;;;10440632;28;20200;-78
2021/12/22 14:18:35;;;;;;;16.33;9.87;;;;;2.40;101595.00;;;;10476562;28;20205;-78
2021/12/22 14:23:37;;;;;;;12.90;7.93;;;;;2.30;101603.00;;;;10418855;28;20252;-78
2021/12/22 14:28:40;;;;;;;17.20;8.80;;;;;2.20;101600.00;;;;10425332;28;20654;-78
2021/12/22 14:33:42;;;;;;;14.50;9.23;;;;;2.10;101604.00;;;;10447650;28;20225;-78
2021/12/22 14:38:49;;;;;;;18.30;9.27;;;;;1.90;101602.00;;;;10456146;28;20677;-78
2021/12/22 14:43:51;;;;;;;15.73;8.83;;;;;1.80;101607.00;;;;10460032;28;20190;-78
2021/12/22 14:48:53;;;;;;;20.30;9.50;;;;;1.70;101604.00;;;;10412752;28;20190;-78
2021/12/22 14:54:01;;;;;;;16.80;8.90;;;;;1.50;101602.00;;;;10425015;28;20190;-78
2021/12/22 14:59:04;;;;;;;13.50;8.57;;;;;1.40;101595.00;;;;10433090;28;20691;-78
2021/12/22 15:04:07;;;;;;;15.63;9.13;;;;;1.20;101592.00;;;;10423520;28;20198;-77
2021/12/22 15:09:10;;;;;;;15.80;10.30;;;;;1.10;101589.00;;;;10434127;28;20191;-77
2021/12/22 15:14:12;;;;;;;16.77;9.33;;;;;0.90;101578.00;;;;10435837;28;20202;-77
2021/12/22 15:19:16;;;;;;;15.50;9.50;;;;;0.80;101573.00;;;;10425602;28;20210;-78
2021/12/22 15:24:18;;;;;;;14.93;9.23;;;;;0.60;101578.00;;;;10471365;28;20183;-77
2021/12/22 15:29:20;;;;;;;18.77;9.57;;;;;0.50;101578.00;;;;10454454;28;20300;-77
2021/12/22 15:34:25;;;;;;;15.17;9.27;;;;;0.40;101570.00;;;;10469551;28;20356;-77
2021/12/22 15:39:26;;;;;;;18.73;11.20;;;;;0.30;101574.00;;;;10440007;28;20226;-77
2021/12/22 15:44:28;;;;;;;15.83;10.33;;;;;0.30;101574.00;;;;10382698;28;20252;-78
2021/12/22 15:49:30;;;;;;;17.93;11.00;;;;;0.20;101568.00;;;;10430419;28;20241;-77
2021/12/22 15:54:32;;;;;;;14.97;9.50;;;;;0.10;101558.00;;;;10423523;28;20624;-78
2021/12/22 15:59:34;;;;;;;17.47;10.30;;;;;-0.10;101542.00;;;;10438086;28;20202;-78
2021/12/22 16:04:36;;;;;;;17.00;10.47;;;;;-0.20;101544.00;;;;10444996;28;20294;-78
2021/12/22 16:09:38;;;;;;;17.03;10.87;;;;;-0.20;101541.00;;;;10438704;28;20654;-79
2021/12/22 16:14:40;;;;;;;23.30;12.10;;;;;-0.20;101551.00;;;;10469140;28;20213;-78
2021/12/22 16:19:42;;;;;;;18.97;11.80;;;;;-0.30;101548.00;;;;10423334;28;20202;-78
2021/12/22 16:24:43;;;;;;;18.87;12.60;;;;;-0.20;101546.00;;;;10402134;28;20568;-78
2021/12/22 16:29:45;;;;;;;21.70;13.50;;;;;-0.30;101534.00;;;;10424836;28;20202;-77
2021/12/22 16:34:48;;;;;;;20.80;12.37;;;;;-0.30;101539.00;;;;10457204;28;20222;-77
2021/12/22 16:39:50;;;;;;;18.87;11.07;;;;;-0.40;101528.00;;;;10436835;28;20214;-77
2021/12/22 16:44:52;;;;;;;18.57;11.87;;;;;-0.30;101519.00;;;;10431126;28;20194;-77
2021/12/22 16:49:54;;;;;;;16.60;10.13;;;;;-0.30;101499.00;;;;10452769;28;20195;-78
2021/12/22 16:54:56;;;;;;;77.57;35.80;;;;;-0.20;101502.00;;;;10409604;28;20247;-77
2021/12/22 16:59:58;;;;;;;24.93;16.77;;;;;-0.30;101504.00;;;;10451637;28;20213;-77
2021/12/22 17:05:01;;;;;;;28.03;16.63;;;;;-0.40;101503.00;;;;10474565;28;20673;-77
2021/12/22 17:10:05;;;;;;;21.33;14.07;;;;;-0.40;101493.00;;;;10428411;28;20809;-77
2021/12/22 17:15:11;;;;;;;19.37;13.17;;;;;-0.40;101493.00;;;;10436803;28;20199;-77
2021/12/22 17:20:15;;;;;;;21.70;14.23;;;;;-0.40;101488.00;;;;10407720;28;20237;-77
2021/12/22 17:25:21;;;;;;;26.97;16.30;;;;;-0.50;101493.00;;;;10458131;28;20221;-77
2021/12/22 17:30:25;;;;;;;26.17;17.07;;;;;-0.50;101473.00;;;;10462498;28;20198;-77
2021/12/22 17:35:29;;;;;;;24.03;15.20;;;;;-0.60;101465.00;;;;10429252;28;20226;-78
2021/12/22 17:40:31;;;;;;;23.60;14.30;;;;;-0.70;101447.00;;;;10448044;28;20218;-78
2021/12/22 17:45:33;;;;;;;22.00;13.13;;;;;-0.60;101438.00;;;;10450091;28;20187;-77
2021/12/22 17:50:35;;;;;;;23.73;13.20;;;;;-0.50;101417.00;;;;10447626;28;20186;-78
2021/12/22 17:55:38;;;;;;;24.60;12.93;;;;;-0.50;101416.00;;;;10429059;28;20245;-77
2021/12/22 18:00:47;;;;;;;21.43;12.80;;;;;-0.50;101404.00;;;;10456939;28;20293;-76
2021/12/22 18:05:57;;;;;;;19.87;11.57;;;;;-0.50;101406.00;;;;10431848;28;20198;-77
2021/12/22 18:10:59;;;;;;;22.07;13.40;;;;;-0.50;101401.00;;;;10444200;28;20236;-77
2021/12/22 18:16:02;;;;;;;23.63;13.50;;;;;-0.60;101398.00;;;;10426206;28;20669;-78
2021/12/22 18:21:06;;;;;;;22.50;11.57;;;;;-0.60;101394.00;;;;10443163;28;20206;-78
2021/12/22 18:26:08;;;;;;;22.90;12.27;;;;;-0.50;101368.00;;;;10459800;28;20244;-78
2021/12/22 18:31:10;;;;;;;18.13;11.80;;;;;-0.50;101372.00;;;;10426435;28;20241;-78
2021/12/22 18:36:13;;;;;;;19.80;11.80;;;;;-0.50;101344.00;;;;10429778;28;20215;-78
2021/12/22 18:41:24;;;;;;;21.30;11.30;;;;;-0.50;101340.00;;;;10426096;28;20210;-78
2021/12/22 18:46:29;;;;;;;21.00;12.63;;;;;-0.50;101352.00;;;;10443268;28;20186;-77
2021/12/22 18:51:32;;;;;;;19.33;11.93;;;;;-0.50;101351.00;;;;10443056;28;20221;-78
2021/12/22 18:56:34;;;;;;;20.63;13.03;;;;;-0.70;101356.00;;;;10425166;28;20206;-78
2021/12/22 19:01:37;;;;;;;20.77;13.00;;;;;-0.80;101347.00;;;;10425590;28;20233;-78
2021/12/22 19:06:43;;;;;;;18.97;12.70;;;;;-0.80;101356.00;;;;10469460;28;20247;-78
2021/12/22 19:11:45;;;;;;;20.03;13.13;;;;;-0.90;101363.00;;;;10425629;28;20194;-78
2021/12/22 19:16:47;;;;;;;22.83;14.37;;;;;-1.00;101374.00;;;;10421538;28;20221;-78
2021/12/22 19:21:49;;;;;;;25.63;14.67;;;;;-1.00;101384.00;;;;10424312;28;20199;-78
2021/12/22 19:26:51;;;;;;;32.87;19.20;;;;;-1.00;101396.00;;;;10409027;28;20198;-78
2021/12/22 19:31:56;;;;;;;32.47;20.10;;;;;-1.00;101400.00;;;;10409647;28;20220;-78
2021/12/22 19:36:58;;;;;;;30.70;19.03;;;;;-1.10;101395.00;;;;10441660;28;20237;-78
2021/12/22 19:42:01;;;;;;;26.10;16.37;;;;;-1.10;101391.00;;;;10408449;28;20626;-78
2021/12/22 19:47:04;;;;;;;28.27;17.83;;;;;-1.20;101395.00;;;;10442836;28;20194;-78
2021/12/22 19:52:06;;;;;;;33.57;18.77;;;;;-1.20;101403.00;;;;10475672;28;20244;-78
2021/12/22 19:57:08;;;;;;;26.67;17.70;;;;;-1.20;101412.00;;;;10393951;28;20642;-78
2021/12/22 20:02:10;;;;;;;31.17;17.30;;;;;-1.20;101398.00;;;;10423223;28;20187;-78
2021/12/22 20:07:14;;;;;;;34.43;19.43;;;;;-1.20;101393.00;;;;10456577;28;20190;-78
2021/12/22 20:12:16;;;;;;;37.03;19.60;;;;;-1.20;101376.00;;;;10412855;28;20216;-78
2021/12/22 20:17:18;;;;;;;41.80;22.53;;;;;-1.20;101366.00;;;;10447734;28;20189;-78
2021/12/22 20:22:20;;;;;;;31.17;19.57;;;;;-1.10;101341.00;;;;10423784;28;20310;-78
2021/12/22 20:27:22;;;;;;;33.90;20.30;;;;;-1.10;101346.00;;;;10414867;28;20198;-78
2021/12/22 20:32:24;;;;;;;35.77;18.97;;;;;-1.10;101336.00;;;;10424218;28;20217;-78
2021/12/22 20:37:26;;;;;;;31.27;18.40;;;;;-1.10;101336.00;;;;10445116;28;20210;-78
2021/12/22 20:42:28;;;;;;;29.90;16.40;;;;;-1.20;101319.00;;;;10424653;28;20878;-78
2021/12/22 20:47:30;;;;;;;30.67;16.40;;;;;-1.20;101304.00;;;;10450633;28;20657;-78
2021/12/22 20:52:33;;;;;;;34.23;20.43;;;;;-1.30;101281.00;;;;10422430;28;20248;-78
2021/12/22 20:57:34;;;;;;;29.00;18.27;;;;;-1.20;101280.00;;;;10457837;28;20202;-78
2021/12/22 21:02:38;;;;;;;31.57;17.33;;;;;-1.20;101289.00;;;;10430335;28;20190;-77
2021/12/22 21:07:40;;;;;;;26.53;16.83;;;;;-1.20;101273.00;;;;10422749;28;20191;-78
2021/12/22 21:12:50;;;;;;;35.17;19.57;;;;;-1.30;101260.00;;;;10439687;28;20247;-78
2021/12/22 21:17:52;;;;;;;43.73;23.13;;;;;-1.40;101242.00;;;;10466177;28;20317;-78
2021/12/22 21:23:07;;;;;;;37.63;21.97;;;;;-1.40;101238.00;;;;10452655;28;20199;-78
2021/12/22 21:28:30;;;;;;;32.73;19.57;;;;;-1.40;101238.00;;;;10425922;28;20214;-78
2021/12/22 21:33:34;;;;;;;31.37;17.93;;;;;-1.30;101233.00;;;;10422145;28;20348;-78
2021/12/22 21:38:38;;;;;;;34.50;20.07;;;;;-1.20;101231.00;;;;10439081;28;20225;-78
2021/12/22 21:43:40;;;;;;;32.47;18.63;;;;;-1.20;101224.00;;;;10443394;28;20240;-78
2021/12/22 21:48:50;;;;;;;30.83;18.47;;;;;-1.20;101230.00;;;;10430026;28;20187;-78
2021/12/22 21:54:59;;;;;;;34.53;19.40;;;;;-1.10;101224.00;;;;10423392;28;20197;-78
2021/12/22 22:00:39;;;;;;;51.03;22.77;;;;;-1.20;101202.00;;;;10423227;28;20203;-78
2021/12/22 22:05:41;;;;;;;34.53;19.40;;;;;-1.30;101198.00;;;;10378386;28;20241;-78
2021/12/22 22:10:43;;;;;;;33.43;18.57;;;;;-1.30;101173.00;;;;10389000;28;20199;-77
2021/12/22 22:15:46;;;;;;;38.60;19.13;;;;;-1.20;101183.00;;;;10398527;28;20195;-77
2021/12/22 22:20:49;;;;;;;38.40;20.57;;;;;-1.10;101159.00;;;;10396055;28;20198;-77
2021/12/22 22:25:51;;;;;;;38.50;20.83;;;;;-0.90;101168.00;;;;10419808;28;20197;-78
2021/12/22 22:30:55;;;;;;;41.47;21.73;;;;;-0.80;101163.00;;;;10437163;28;20197;-78
2021/12/22 22:35:57;;;;;;;33.37;19.70;;;;;-0.80;101173.00;;;;10411815;28;20211;-78
2021/12/22 22:41:00;;;;;;;33.73;20.27;;;;;-0.80;101174.00;;;;10446810;28;20207;-78
2021/12/22 22:46:02;;;;;;;34.87;20.03;;;;;-0.80;101167.00;;;;10399108;28;20198;-77
2021/12/22 22:51:05;;;;;;;29.23;17.80;;;;;-0.80;101166.00;;;;10391885;28;20191;-78
2021/12/22 22:56:07;;;;;;;35.47;19.30;;;;;-0.80;101172.00;;;;10421488;28;20190;-77
2021/12/22 23:01:09;;;;;;;36.03;19.37;;;;;-0.90;101150.00;;;;10396716;28;20697;-78
2021/12/22 23:06:12;;;;;;;35.60;21.50;;;;;-0.80;101131.00;;;;10414296;28;20281;-78
2021/12/22 23:11:14;;;;;;;34.77;19.87;;;;;-0.80;101158.00;;;;10419445;28;20197;-77
2021/12/22 23:16:16;;;;;;;31.67;19.77;;;;;-0.80;101164.00;;;;10365133;28;20218;-78
2021/12/22 23:21:18;;;;;;;33.47;19.17;;;;;-0.90;101150.00;;;;10396871;28;20211;-77
2021/12/22 23:26:20;;;;;;;36.33;21.37;;;;;-1.00;101151.00;;;;10401445;28;20190;-78
2021/12/22 23:31:22;;;;;;;36.97;20.37;;;;;-1.10;101156.00;;;;10384531;28;20187;-78
2021/12/22 23:36:31;;;;;;;34.77;21.10;;;;;-1.20;101161.00;;;;10384245;28;20298;-78
2021/12/22 23:52:08;;;;;;;38.00;22.13;;;;;-1.20;101118.00;;;;10367904;28;20195;-78
2021/12/22 23:57:10;;;;;;;44.80;23.40;;;;;-1.20;101089.00;;;;10400535;28;20202;-78
